Time;durP1;ratioP1;P1;durP2;ratioP2;P2;SDS_P1;SDS_P2;PMS_P1;PMS_P2;Temp;Humidity;BMP_temperature;BMP_pressure;BME280_temperature;BME280_humidity;BME280_pressure;Samples;Min_cycle;Max_cycle;Signal;HPM_P1;HPM_P2
2022/05/26 00:01:24;;;;;;;7.83;2.77;;;14.40;99.90;;;;;;5024989;28;20237;-81
2022/05/26 00:03:50;;;;;;;6.90;2.07;;;14.40;99.90;;;;;;5026536;28;20207;-81
2022/05/26 00:06:19;;;;;;;7.73;2.70;;;14.40;99.90;;;;;;5025300;28;20310;-81
2022/05/26 00:08:45;;;;;;;9.20;2.43;;;14.40;99.90;;;;;;5025371;28;20245;-82
2022/05/26 00:11:17;;;;;;;4.17;2.17;;;14.30;99.90;;;;;;5024968;28;20194;-82
2022/05/26 00:13:43;;;;;;;7.73;3.37;;;14.30;99.90;;;;;;5026873;28;20658;-85
2022/05/26 00:16:10;;;;;;;6.73;2.20;;;14.30;99.90;;;;;;5024797;28;20219;-82
2022/05/26 00:18:36;;;;;;;3.93;1.93;;;14.30;99.90;;;;;;5026203;28;20248;-82
2022/05/26 00:21:02;;;;;;;4.87;2.03;;;14.30;99.90;;;;;;4992069;28;20667;-83
2022/05/26 00:23:28;;;;;;;6.80;2.20;;;14.30;99.90;;;;;;5024544;28;20175;-81
2022/05/26 00:25:54;;;;;;;10.83;1.33;;;14.30;99.90;;;;;;4992404;28;20674;-82
2022/05/26 00:28:19;;;;;;;0.73;0.73;;;14.30;99.90;;;;;;5024746;28;20242;-82
2022/05/26 00:30:45;;;;;;;1.23;0.87;;;14.40;99.90;;;;;;5025794;28;20226;-84
2022/05/26 00:33:13;;;;;;;8.03;1.80;;;14.50;99.90;;;;;;5024545;28;20229;-82
2022/05/26 00:35:40;;;;;;;5.73;2.37;;;14.50;99.90;;;;;;5025444;28;20191;-81
2022/05/26 00:38:10;;;;;;;3.87;1.73;;;14.50;99.90;;;;;;5026096;28;20195;-81
2022/05/26 00:40:38;;;;;;;0.70;0.53;;;14.50;99.90;;;;;;5024444;28;20671;-82
2022/05/26 00:43:04;;;;;;;3.07;1.23;;;14.50;99.90;;;;;;5024384;28;20384;-83
2022/05/26 00:45:37;;;;;;;3.70;1.33;;;14.50;99.90;;;;;;5024287;28;20306;-81
2022/05/26 00:48:09;;;;;;;4.03;1.70;;;14.50;99.90;;;;;;5025516;28;20235;-83
2022/05/26 00:50:44;;;;;;;2.37;1.20;;;14.50;99.90;;;;;;5025853;28;20167;-83
2022/05/26 00:53:34;;;;;;;10.87;1.70;;;14.50;99.90;;;;;;5025429;28;20201;-84
2022/05/26 00:56:14;;;;;;;4.97;1.97;;;14.60;99.90;;;;;;5023685;28;20260;-81
2022/05/26 00:58:45;;;;;;;3.40;1.63;;;14.50;99.90;;;;;;5025173;28;20219;-81
2022/05/26 01:01:12;;;;;;;4.10;1.40;;;14.50;99.90;;;;;;5040734;28;20218;-83
2022/05/26 01:04:01;;;;;;;4.00;1.60;;;14.40;99.90;;;;;;5023851;28;20219;-81
2022/05/26 01:06:45;;;;;;;2.97;1.13;;;14.40;99.90;;;;;;5023089;28;20246;-83
2022/05/26 01:09:12;;;;;;;7.40;2.80;;;14.40;99.90;;;;;;5025501;28;20622;-81
2022/05/26 01:11:40;;;;;;;6.60;1.40;;;14.40;99.90;;;;;;5024861;28;20166;-82
2022/05/26 01:14:17;;;;;;;3.80;1.60;;;14.40;99.90;;;;;;5024120;28;20322;-84
2022/05/26 01:17:24;;;;;;;9.27;2.00;;;14.40;99.90;;;;;;5023737;28;20211;-81
2022/05/26 01:20:19;;;;;;;2.03;1.43;;;14.40;99.90;;;;;;4971752;28;20393;-82
2022/05/26 01:23:10;;;;;;;3.50;1.50;;;14.40;99.90;;;;;;5023996;28;20276;-80
2022/05/26 01:26:00;;;;;;;2.67;1.37;;;14.40;99.90;;;;;;5024829;28;20579;-80
2022/05/26 01:28:32;;;;;;;4.13;2.10;;;14.40;99.90;;;;;;5023523;28;20289;-82
2022/05/26 01:31:16;;;;;;;3.60;1.97;;;14.40;99.90;;;;;;5022625;28;20238;-81
2022/05/26 01:33:58;;;;;;;2.53;1.50;;;14.50;99.90;;;;;;5024268;28;20642;-81
2022/05/26 01:36:58;;;;;;;7.63;1.93;;;14.50;99.90;;;;;;5039505;28;20709;-82
2022/05/26 01:39:45;;;;;;;2.33;1.20;;;14.50;99.90;;;;;;5024553;28;20299;-80
2022/05/26 01:42:22;;;;;;;6.07;1.90;;;14.50;99.90;;;;;;5024346;28;20571;-83
2022/05/26 01:45:05;;;;;;;4.23;1.80;;;14.50;99.90;;;;;;5024467;28;20218;-81
2022/05/26 01:47:52;;;;;;;4.73;2.20;;;14.50;99.90;;;;;;5023168;28;20727;-80
2022/05/26 01:50:21;;;;;;;2.63;1.53;;;14.50;99.90;;;;;;5039152;28;20190;-82
2022/05/26 01:53:15;;;;;;;4.13;1.50;;;14.40;99.90;;;;;;5024690;28;20210;-80
2022/05/26 01:56:02;;;;;;;3.37;1.53;;;14.30;99.90;;;;;;5004437;28;20222;-82
2022/05/26 01:58:31;;;;;;;1.83;1.10;;;14.20;99.90;;;;;;5023150;28;20222;-83
2022/05/26 02:01:01;;;;;;;3.37;1.27;;;14.20;99.90;;;;;;5024252;28;20222;-81
2022/05/26 02:03:30;;;;;;;2.73;1.00;;;14.10;99.90;;;;;;5022872;28;20229;-81
2022/05/26 02:06:08;;;;;;;0.50;0.47;;;14.10;99.90;;;;;;5023205;28;20210;-81
2022/05/26 02:08:40;;;;;;;3.40;0.53;;;14.00;99.90;;;;;;5022962;28;20336;-81
2022/05/26 02:11:15;;;;;;;3.60;0.83;;;14.00;99.90;;;;;;5022263;28;20654;-81
2022/05/26 02:13:45;;;;;;;4.80;1.03;;;14.00;99.90;;;;;;5038923;28;20222;-81
2022/05/26 02:16:45;;;;;;;1.87;0.70;;;14.00;99.90;;;;;;5023548;28;20214;-79
2022/05/26 02:19:16;;;;;;;0.80;0.63;;;13.90;99.90;;;;;;5023957;28;20741;-81
2022/05/26 02:22:06;;;;;;;2.90;1.50;;;13.90;99.90;;;;;;5022169;28;20694;-80
2022/05/26 02:24:47;;;;;;;2.87;1.40;;;13.80;99.90;;;;;;5022234;28;20246;-80
2022/05/26 02:27:13;;;;;;;5.10;1.40;;;13.80;99.90;;;;;;5022777;28;20234;-81
2022/05/26 02:29:51;;;;;;;1.30;1.20;;;13.70;99.90;;;;;;4990043;28;20862;-80
2022/05/26 02:32:24;;;;;;;1.40;1.33;;;13.70;99.90;;;;;;5008091;28;20182;-80
2022/05/26 02:34:52;;;;;;;1.10;1.00;;;13.70;99.90;;;;;;5022664;28;20214;-82
2022/05/26 02:37:20;;;;;;;1.63;1.37;;;13.60;99.90;;;;;;5038600;28;20222;-80
2022/05/26 02:39:46;;;;;;;1.20;0.83;;;13.60;99.90;;;;;;5023476;28;20253;-84
2022/05/26 02:42:12;;;;;;;0.83;0.83;;;13.50;99.90;;;;;;4988981;28;20246;-80
2022/05/26 02:44:39;;;;;;;3.13;0.70;;;13.50;99.90;;;;;;4988423;28;20214;-79
2022/05/26 02:47:31;;;;;;;0.67;0.67;;;13.50;99.90;;;;;;5022392;28;20276;-80
2022/05/26 02:50:19;;;;;;;3.80;0.93;;;13.50;99.90;;;;;;5022378;28;20211;-81
2022/05/26 02:53:03;;;;;;;4.23;0.93;;;13.50;99.90;;;;;;5021910;28;20310;-80
2022/05/26 02:55:51;;;;;;;0.50;0.40;;;13.50;99.90;;;;;;5023206;28;20241;-81
2022/05/26 02:58:51;;;;;;;3.40;0.83;;;13.50;99.90;;;;;;5021841;28;20202;-82
2022/05/26 03:01:24;;;;;;;1.93;0.73;;;13.50;99.90;;;;;;5022556;28;20313;-81
2022/05/26 03:04:11;;;;;;;0.63;0.60;;;13.50;99.90;;;;;;5021615;28;20210;-80
2022/05/26 03:06:49;;;;;;;3.60;0.97;;;13.50;99.90;;;;;;5022823;28;20517;-80
2022/05/26 03:09:16;;;;;;;12.60;1.33;;;13.40;99.90;;;;;;5020977;28;20408;-80
2022/05/26 03:12:02;;;;;;;2.70;0.90;;;13.40;99.90;;;;;;5022820;28;20686;-82
2022/05/26 03:14:28;;;;;;;1.47;0.63;;;13.40;99.90;;;;;;5022805;28;20190;-82
2022/05/26 03:16:54;;;;;;;1.10;0.70;;;13.40;99.90;;;;;;5022616;28;20201;-81
2022/05/26 03:19:20;;;;;;;17.70;1.43;;;13.50;99.90;;;;;;5021846;28;20783;-81
2022/05/26 03:21:45;;;;;;;1.90;0.70;;;13.50;99.90;;;;;;5021797;28;20679;-82
2022/05/26 03:24:12;;;;;;;0.57;0.57;;;13.50;99.90;;;;;;5021410;28;20283;-81
2022/05/26 03:26:38;;;;;;;3.00;1.10;;;13.50;99.90;;;;;;5004942;28;20319;-80
2022/05/26 03:29:05;;;;;;;3.27;1.10;;;13.50;99.90;;;;;;5023057;28;20547;-82
2022/05/26 03:31:32;;;;;;;0.50;0.50;;;13.50;99.90;;;;;;5021311;28;20305;-81
2022/05/26 03:42:25;;;;;;;1.03;0.93;;;13.30;99.90;;;;;;5021372;28;20249;-80
2022/05/26 03:44:51;;;;;;;1.83;0.70;;;13.30;99.90;;;;;;5005494;28;20218;-79
2022/05/26 03:47:17;;;;;;;0.40;0.40;;;13.20;99.90;;;;;;4988576;28;20237;-80
2022/05/26 03:49:42;;;;;;;1.40;1.30;;;13.20;99.90;;;;;;5021373;28;20218;-79
2022/05/26 03:52:08;;;;;;;5.73;0.60;;;13.20;99.90;;;;;;5020994;28;20222;-79
2022/05/26 03:54:34;;;;;;;2.20;0.60;;;13.30;99.90;;;;;;5004765;28;20238;-85
2022/05/26 03:57:00;;;;;;;0.40;0.40;;;13.20;99.90;;;;;;5020082;28;20233;-80
2022/05/26 03:59:26;;;;;;;6.50;1.03;;;13.20;99.90;;;;;;5004160;28;20195;-80
2022/05/26 04:01:52;;;;;;;1.40;0.90;;;13.20;99.90;;;;;;5022244;28;20178;-81
2022/05/26 04:04:18;;;;;;;0.77;0.77;;;13.20;99.90;;;;;;5004041;28;20225;-81
2022/05/26 04:06:44;;;;;;;4.10;0.90;;;13.30;99.90;;;;;;5022017;28;20230;-83
2022/05/26 04:09:10;;;;;;;1.60;0.60;;;13.30;99.90;;;;;;5004629;28;20211;-79
2022/05/26 04:11:35;;;;;;;3.63;1.13;;;13.30;99.90;;;;;;5022707;28;20241;-80
2022/05/26 04:14:02;;;;;;;2.63;1.00;;;13.40;99.90;;;;;;5021772;28;20228;-81
2022/05/26 04:16:27;;;;;;;2.37;0.87;;;13.40;99.90;;;;;;5021191;28;20329;-83
2022/05/26 04:18:53;;;;;;;2.33;0.60;;;13.40;99.90;;;;;;5021160;28;20393;-80
2022/05/26 04:21:19;;;;;;;1.60;1.03;;;13.40;99.90;;;;;;5004623;28;20253;-83
2022/05/26 04:23:45;;;;;;;2.30;0.77;;;13.40;99.90;;;;;;5020666;28;20238;-81
2022/05/26 04:26:11;;;;;;;1.90;0.50;;;13.50;99.90;;;;;;5023191;28;20717;-84
2022/05/26 04:28:38;;;;;;;3.77;0.77;;;13.50;99.90;;;;;;5021589;28;20700;-82
2022/05/26 04:31:04;;;;;;;1.43;1.33;;;13.50;99.90;;;;;;5020847;28;20230;-82
2022/05/26 04:33:31;;;;;;;4.07;0.97;;;13.60;99.90;;;;;;5020044;28;20228;-82
2022/05/26 04:35:57;;;;;;;2.20;0.83;;;13.60;99.90;;;;;;5023390;28;20222;-81
2022/05/26 04:38:23;;;;;;;1.37;0.40;;;13.70;99.90;;;;;;5024238;28;20183;-82
2022/05/26 04:41:07;;;;;;;6.63;0.97;;;13.70;99.90;;;;;;4992164;28;20252;-82
2022/05/26 04:43:33;;;;;;;4.13;1.00;;;13.70;99.90;;;;;;5024235;28;20608;-80
2022/05/26 04:45:59;;;;;;;1.23;0.90;;;13.80;99.90;;;;;;5024412;28;20214;-82
2022/05/26 04:48:25;;;;;;;1.10;0.77;;;13.80;99.90;;;;;;5007321;28;20223;-84
2022/05/26 04:50:52;;;;;;;2.10;0.90;;;13.90;99.90;;;;;;5007538;28;20270;-81
2022/05/26 04:53:18;;;;;;;1.03;0.47;;;13.90;99.90;;;;;;5008411;28;20194;-82
2022/05/26 04:55:46;;;;;;;0.37;0.30;;;14.00;99.90;;;;;;4991152;28;20293;-82
2022/05/26 04:58:11;;;;;;;2.17;0.67;;;14.00;99.90;;;;;;5023787;28;20223;-80
2022/05/26 05:00:37;;;;;;;2.33;1.50;;;14.10;99.90;;;;;;5024281;28;20330;-81
2022/05/26 05:03:03;;;;;;;3.87;1.27;;;14.20;99.90;;;;;;5007606;28;20671;-83
2022/05/26 05:05:29;;;;;;;9.73;2.00;;;14.30;99.90;;;;;;5023490;28;20647;-82
2022/05/26 05:07:55;;;;;;;0.40;0.40;;;14.40;99.90;;;;;;5008357;28;20239;-80
2022/05/26 05:10:20;;;;;;;0.70;0.70;;;14.50;99.90;;;;;;5023316;28;20295;-82
2022/05/26 05:12:49;;;;;;;2.50;0.90;;;14.60;99.90;;;;;;5007325;28;20210;-80
2022/05/26 05:15:21;;;;;;;6.43;0.77;;;14.80;99.90;;;;;;5007133;28;20649;-81
2022/05/26 05:17:48;;;;;;;7.50;1.50;;;15.10;99.90;;;;;;5024242;28;20230;-81
2022/05/26 05:20:14;;;;;;;2.23;0.70;;;16.50;99.90;;;;;;5024139;28;20213;-81
2022/05/26 05:22:51;;;;;;;8.13;0.80;;;18.70;99.90;;;;;;5025453;28;20309;-79
2022/05/26 05:25:23;;;;;;;1.97;0.80;;;19.40;99.90;;;;;;5024640;28;20499;-81
2022/05/26 05:27:54;;;;;;;0.87;0.87;;;19.60;99.90;;;;;;5024605;28;20242;-81
2022/05/26 05:30:35;;;;;;;2.53;0.50;;;19.90;99.90;;;;;;5023380;28;20229;-80
2022/05/26 05:33:13;;;;;;;1.30;0.77;;;19.70;99.90;;;;;;5024289;28;20276;-80
2022/05/26 05:35:50;;;;;;;1.40;0.80;;;21.30;99.90;;;;;;5023161;28;20187;-80
2022/05/26 05:38:17;;;;;;;0.57;0.57;;;20.80;99.90;;;;;;5024939;28;20250;-82
2022/05/26 05:40:43;;;;;;;1.60;0.40;;;20.20;99.90;;;;;;5024275;28;20222;-84
2022/05/26 05:43:09;;;;;;;2.63;0.53;;;20.60;99.90;;;;;;5024565;28;20222;-82
2022/05/26 05:45:35;;;;;;;1.50;0.73;;;20.70;99.90;;;;;;5006568;28;20538;-81
2022/05/26 05:48:01;;;;;;;0.40;0.40;;;21.10;99.90;;;;;;4990203;28;20479;-84
2022/05/26 05:50:27;;;;;;;3.20;0.70;;;21.00;99.90;;;;;;5022797;28;20187;-83
2022/05/26 05:52:53;;;;;;;0.93;0.70;;;20.90;99.90;;;;;;5023406;28;20265;-80
2022/05/26 05:55:18;;;;;;;3.10;1.40;;;21.50;99.90;;;;;;5022639;28;20215;-83
2022/05/26 05:57:44;;;;;;;0.83;0.80;;;20.90;99.90;;;;;;5005991;28;20214;-83
2022/05/26 06:00:10;;;;;;;2.73;0.80;;;22.50;99.90;;;;;;5022686;28;20305;-82
2022/05/26 06:02:36;;;;;;;0.80;0.80;;;21.10;99.90;;;;;;5022550;28;20210;-82
2022/05/26 06:05:04;;;;;;;0.57;0.57;;;20.70;99.90;;;;;;5023262;28;20709;-83
2022/05/26 06:07:29;;;;;;;2.27;0.70;;;21.10;99.90;;;;;;5023722;28;20269;-82
2022/05/26 06:09:55;;;;;;;1.13;0.73;;;22.70;99.90;;;;;;5022758;28;20214;-80
2022/05/26 06:12:21;;;;;;;2.00;0.70;;;21.80;99.90;;;;;;5005933;28;20215;-83
2022/05/26 06:14:47;;;;;;;2.20;1.07;;;21.50;99.90;;;;;;5022396;28;20663;-84
2022/05/26 06:17:14;;;;;;;1.60;0.70;;;21.30;99.90;;;;;;5005931;28;20194;-82
2022/05/26 06:19:41;;;;;;;0.97;0.80;;;20.40;99.90;;;;;;5023543;28;20219;-85
2022/05/26 06:22:16;;;;;;;5.17;1.07;;;21.30;99.90;;;;;;4989467;28;20603;-82
2022/05/26 06:24:43;;;;;;;2.27;0.77;;;20.00;99.90;;;;;;5023830;28;20217;-81
2022/05/26 06:29:57;;;;;;;5.40;1.03;;;21.10;99.90;;;;;;5022699;28;20238;-84
2022/05/26 06:37:54;;;;;;;2.23;1.27;;;19.70;99.90;;;;;;5023897;28;20898;-84
2022/05/26 06:40:20;;;;;;;1.50;0.60;;;21.90;99.90;;;;;;4989583;28;20229;-85
2022/05/26 06:42:47;;;;;;;1.20;0.60;;;20.70;99.90;;;;;;5022819;28;20218;-84
2022/05/26 06:45:14;;;;;;;3.27;0.80;;;21.40;99.90;;;;;;5023521;28;20710;-84
2022/05/26 06:47:41;;;;;;;3.03;0.80;;;21.10;99.90;;;;;;5037983;28;20264;-84
2022/05/26 06:50:07;;;;;;;0.80;0.80;;;21.00;99.90;;;;;;5022775;28;20186;-85
2022/05/26 06:52:33;;;;;;;2.33;1.30;;;20.90;99.90;;;;;;5022383;28;20609;-81
2022/05/26 06:54:59;;;;;;;3.80;0.80;;;20.10;99.90;;;;;;4989403;28;20226;-82
2022/05/26 06:57:25;;;;;;;2.60;1.23;;;19.70;99.90;;;;;;5004330;28;20276;-85
2022/05/26 06:59:51;;;;;;;1.70;0.60;;;18.70;99.90;;;;;;5023477;28;20222;-85
2022/05/26 07:02:17;;;;;;;1.67;0.93;;;18.10;99.90;;;;;;5009456;28;20191;-85
2022/05/26 07:04:43;;;;;;;1.20;0.87;;;17.60;99.90;;;;;;5006345;28;20601;-85
2022/05/26 07:07:13;;;;;;;2.30;1.10;;;17.40;99.90;;;;;;5005434;28;20229;-85
2022/05/26 07:09:39;;;;;;;6.57;1.70;;;17.40;99.90;;;;;;5021580;28;20742;-84
2022/05/26 07:12:06;;;;;;;2.87;1.13;;;17.30;99.90;;;;;;5005874;28;20754;-83
2022/05/26 07:14:32;;;;;;;3.03;1.20;;;17.10;99.90;;;;;;5005366;28;20193;-83
2022/05/26 07:16:57;;;;;;;0.87;0.67;;;16.90;99.90;;;;;;5021624;28;20191;-85
2022/05/26 07:19:23;;;;;;;0.50;0.50;;;17.00;99.90;;;;;;5001596;28;20793;-83
2022/05/26 07:21:49;;;;;;;3.67;0.80;;;17.00;99.90;;;;;;4979038;28;20639;-85
2022/05/26 07:24:20;;;;;;;2.23;1.17;;;16.90;99.90;;;;;;4980548;28;20222;-81
2022/05/26 07:26:47;;;;;;;2.60;1.10;;;17.40;99.90;;;;;;5018419;28;20717;-80
2022/05/26 07:29:14;;;;;;;4.10;0.90;;;17.90;99.90;;;;;;4985164;28;20583;-80
2022/05/26 07:31:40;;;;;;;9.87;1.20;;;18.20;99.90;;;;;;5002246;28;20223;-81
2022/05/26 07:34:07;;;;;;;5.10;0.80;;;18.40;99.90;;;;;;5001204;28;20219;-80
2022/05/26 07:42:05;;;;;;;5.60;1.23;;;17.20;99.90;;;;;;5021019;28;20686;-81
2022/05/26 07:44:35;;;;;;;2.47;1.07;;;16.90;99.90;;;;;;5022358;28;20222;-82
2022/05/26 07:47:05;;;;;;;2.40;0.83;;;16.90;99.90;;;;;;5021374;28;20209;-80
2022/05/26 07:49:41;;;;;;;1.13;0.90;;;17.00;99.90;;;;;;5021167;28;20226;-82
2022/05/26 07:52:07;;;;;;;0.77;0.60;;;17.00;99.90;;;;;;5021609;28;20309;-81
2022/05/26 07:54:33;;;;;;;1.67;0.90;;;17.30;99.90;;;;;;5004040;28;20245;-83
2022/05/26 07:57:00;;;;;;;1.57;0.70;;;17.40;99.90;;;;;;5021569;28;20663;-85
2022/05/26 07:59:26;;;;;;;0.53;0.53;;;17.30;99.90;;;;;;5004930;28;20194;-82
2022/05/26 08:01:51;;;;;;;0.70;0.70;;;17.20;99.90;;;;;;4988705;28;20199;-85
2022/05/26 08:04:18;;;;;;;2.73;1.30;;;17.40;99.90;;;;;;5004982;28;20211;-82
2022/05/26 08:06:46;;;;;;;0.53;0.50;;;17.00;99.90;;;;;;5021537;28;20226;-82
2022/05/26 08:09:14;;;;;;;1.60;0.70;;;17.20;99.90;;;;;;5023390;28;20305;-82
2022/05/26 08:11:40;;;;;;;1.30;0.40;;;17.20;99.90;;;;;;5022093;28;20229;-87
2022/05/26 08:14:05;;;;;;;6.10;0.87;;;17.10;99.90;;;;;;4990870;28;20712;-81
2022/05/26 08:16:31;;;;;;;2.20;0.70;;;17.30;99.90;;;;;;5023690;28;20222;-83
2022/05/26 08:18:57;;;;;;;0.77;0.70;;;17.30;99.90;;;;;;5024192;28;20238;-83
2022/05/26 08:21:23;;;;;;;0.73;0.73;;;17.50;99.90;;;;;;5007096;28;20246;-84
2022/05/26 08:23:49;;;;;;;0.60;0.53;;;17.80;99.90;;;;;;5024091;28;20685;-84
2022/05/26 08:26:15;;;;;;;0.70;0.70;;;18.30;99.90;;;;;;4992229;28;20182;-81
2022/05/26 08:28:42;;;;;;;2.20;0.70;;;18.20;99.90;;;;;;5024702;28;20254;-82
2022/05/26 08:31:10;;;;;;;0.50;0.50;;;17.80;99.90;;;;;;5008654;28;20230;-83
2022/05/26 08:33:37;;;;;;;1.57;0.83;;;18.00;99.90;;;;;;5026124;28;20707;-83
2022/05/26 08:36:12;;;;;;;1.70;0.70;;;18.00;99.90;;;;;;5023838;28;20223;-83
2022/05/26 08:38:39;;;;;;;0.80;0.80;;;18.30;99.90;;;;;;5040342;28;20193;-85
2022/05/26 08:41:06;;;;;;;1.80;0.70;;;18.70;99.90;;;;;;5009074;28;20190;-83
2022/05/26 08:43:43;;;;;;;0.83;0.77;;;19.00;99.90;;;;;;5025023;28;20234;-83
2022/05/26 08:46:13;;;;;;;2.17;0.83;;;18.70;99.90;;;;;;5023886;28;20222;-83
2022/05/26 08:49:07;;;;;;;4.43;1.13;;;19.00;99.90;;;;;;5024410;28;20222;-84
2022/05/26 08:51:39;;;;;;;1.30;0.70;;;20.20;99.90;;;;;;5025164;28;20207;-84
2022/05/26 08:54:10;;;;;;;0.73;0.70;;;20.70;99.90;;;;;;5026601;28;20223;-86
2022/05/26 08:56:36;;;;;;;1.77;1.10;;;20.60;99.90;;;;;;5008336;28;20233;-87
2022/05/26 08:59:11;;;;;;;2.90;1.07;;;20.80;99.90;;;;;;5009094;28;20489;-83
2022/05/26 09:01:38;;;;;;;1.87;0.83;;;20.70;99.90;;;;;;5025263;28;20226;-85
2022/05/26 09:04:04;;;;;;;4.83;1.10;;;21.20;99.90;;;;;;5009968;28;20210;-84
2022/05/26 09:12:55;;;;;;;0.73;0.70;;;21.50;99.90;;;;;;5007095;28;20222;-85
2022/05/26 09:15:13;;;;;;;1.30;1.10;;;21.10;99.90;;;;;;4964775;28;20209;-85
2022/05/26 09:17:39;;;;;;;1.93;0.90;;;21.10;99.90;;;;;;4951252;28;20267;-88
2022/05/26 09:20:34;;;;;;;1.57;0.80;;;21.20;99.90;;;;;;4966789;28;20647;-82
2022/05/26 09:23:21;;;;;;;2.63;1.10;;;20.90;99.90;;;;;;5040718;28;20202;-81
2022/05/26 09:25:53;;;;;;;0.80;0.80;;;20.00;99.90;;;;;;5004761;28;20687;-84
2022/05/26 09:28:30;;;;;;;7.37;1.33;;;20.50;99.90;;;;;;5004319;28;20707;-83
2022/05/26 09:30:58;;;;;;;2.23;1.20;;;20.50;99.90;;;;;;5005896;28;20398;-84
2022/05/26 09:33:31;;;;;;;4.10;1.37;;;20.80;99.90;;;;;;5005278;28;20211;-87
2022/05/26 09:36:36;;;;;;;1.50;1.10;;;20.70;99.90;;;;;;5004739;28;20226;-86
2022/05/26 09:39:04;;;;;;;2.20;1.00;;;21.70;99.90;;;;;;4917596;29;20229;-84
2022/05/26 09:41:37;;;;;;;2.90;1.90;;;21.80;99.90;;;;;;4926237;29;20281;-84
2022/05/26 09:44:03;;;;;;;5.77;1.13;;;22.10;99.90;;;;;;4969955;28;20231;-86
2022/05/26 09:46:30;;;;;;;1.10;0.70;;;22.60;99.90;;;;;;4998352;28;20207;-86
2022/05/26 09:49:08;;;;;;;2.42;1.30;;;21.20;99.90;;;;;;4973319;28;20215;-85
2022/05/26 09:51:45;;;;;;;2.55;0.90;;;21.90;99.90;;;;;;5004115;28;20261;-87
2022/05/26 09:54:30;;;;;;;3.45;1.27;;;22.40;99.90;;;;;;5003997;28;20763;-86
2022/05/26 09:56:56;;;;;;;4.22;1.10;;;23.10;99.90;;;;;;5004015;28;20559;-86
2022/05/26 09:59:34;;;;;;;1.83;0.90;;;23.00;99.90;;;;;;4987610;28;20191;-87
2022/05/26 10:02:13;;;;;;;2.70;0.90;;;23.70;99.90;;;;;;5004510;28;20620;-85
2022/05/26 10:04:51;;;;;;;4.97;1.30;;;22.20;99.90;;;;;;5004160;28;20219;-86
2022/05/26 10:07:45;;;;;;;1.63;1.10;;;21.30;99.90;;;;;;5004248;28;20574;-85
2022/05/26 10:10:22;;;;;;;2.65;1.45;;;20.70;99.90;;;;;;5004283;28;20257;-85
2022/05/26 10:13:21;;;;;;;1.92;1.20;;;19.90;99.90;;;;;;5005578;28;20751;-86
2022/05/26 10:15:55;;;;;;;3.57;1.43;;;19.10;99.90;;;;;;5003878;28;20339;-86
2022/05/26 10:18:37;;;;;;;2.23;1.27;;;19.80;99.90;;;;;;5004111;28;20599;-88
2022/05/26 10:21:22;;;;;;;1.57;1.13;;;19.80;99.90;;;;;;5004481;28;20277;-86
2022/05/26 10:24:12;;;;;;;1.83;1.30;;;19.60;99.90;;;;;;5003780;28;20332;-88
2022/05/26 10:27:07;;;;;;;3.10;2.03;;;20.50;99.90;;;;;;5003056;28;20196;-86
2022/05/26 10:29:59;;;;;;;3.23;1.27;;;20.80;99.90;;;;;;5003741;28;20326;-86
2022/05/26 10:33:00;;;;;;;5.63;1.80;;;19.50;99.90;;;;;;5003087;28;20984;-88
2022/05/26 10:35:30;;;;;;;1.73;1.20;;;19.90;99.90;;;;;;5006195;28;20667;-88
2022/05/26 10:38:11;;;;;;;1.50;0.90;;;20.50;99.90;;;;;;5006661;28;20199;-86
2022/05/26 10:40:57;;;;;;;1.43;1.30;;;20.90;99.90;;;;;;5004362;28;20214;-87
2022/05/26 10:43:57;;;;;;;2.47;1.50;;;20.90;99.90;;;;;;5003213;28;20691;-86
2022/05/26 10:46:27;;;;;;;4.40;1.10;;;20.40;99.90;;;;;;4998975;28;20215;-87
2022/05/26 10:49:15;;;;;;;2.67;1.03;;;19.90;99.90;;;;;;4986797;28;20234;-85
2022/05/26 10:51:53;;;;;;;2.47;1.37;;;19.60;99.90;;;;;;5002908;28;20219;-83
2022/05/26 10:54:36;;;;;;;9.47;1.47;;;19.30;99.90;;;;;;5003184;28;20229;-87
2022/05/26 10:57:28;;;;;;;2.00;0.97;;;19.80;99.90;;;;;;5003253;28;20253;-84
2022/05/26 11:00:08;;;;;;;1.97;1.20;;;20.30;99.90;;;;;;5001728;28;20234;-87
2022/05/26 11:02:47;;;;;;;3.40;1.30;;;20.20;99.90;;;;;;5002742;28;20699;-87
2022/05/26 11:05:36;;;;;;;2.13;1.00;;;21.00;99.90;;;;;;5019564;28;20223;-86
2022/05/26 11:08:20;;;;;;;2.30;1.10;;;20.70;99.90;;;;;;5002734;28;20462;-84
2022/05/26 11:10:50;;;;;;;5.63;1.00;;;20.10;99.90;;;;;;5003414;28;20207;-87
2022/05/26 11:13:38;;;;;;;4.03;1.00;;;19.80;99.90;;;;;;5002393;28;20313;-86
2022/05/26 11:19:57;;;;;;;4.53;1.13;;;19.80;99.90;;;;;;5004152;28;20219;-86
2022/05/26 11:22:24;;;;;;;2.30;0.83;;;20.00;99.90;;;;;;5002952;28;20222;-86
2022/05/26 11:24:52;;;;;;;0.63;0.63;;;19.60;99.90;;;;;;4982760;28;20309;-84
2022/05/26 11:27:26;;;;;;;1.20;0.67;;;19.30;99.90;;;;;;5021465;28;20532;-86
2022/05/26 11:30:03;;;;;;;2.57;1.10;;;19.50;99.90;;;;;;5021309;28;20242;-86
2022/05/26 11:38:41;;;;;;;1.47;1.20;;;20.10;99.90;;;;;;5022841;28;20182;-86
2022/05/26 11:41:12;;;;;;;2.07;0.83;;;20.20;99.90;;;;;;5022709;28;20843;-86
2022/05/26 11:43:58;;;;;;;0.57;0.57;;;19.50;99.90;;;;;;5025986;28;20222;-86
2022/05/26 11:46:49;;;;;;;1.90;0.80;;;19.10;99.90;;;;;;5042006;28;20222;-85
2022/05/26 11:49:43;;;;;;;2.27;1.13;;;19.40;99.90;;;;;;5019894;28;20269;-88
2022/05/26 11:52:26;;;;;;;1.20;0.80;;;20.50;99.90;;;;;;5026134;28;20218;-85
2022/05/26 11:55:03;;;;;;;1.70;1.43;;;20.60;99.90;;;;;;5025586;28;20703;-85
2022/05/26 11:57:48;;;;;;;2.03;0.50;;;20.80;99.90;;;;;;5025740;28;20292;-89
2022/05/26 12:00:23;;;;;;;1.20;0.83;;;20.80;99.90;;;;;;5026572;28;20256;-88
2022/05/26 12:03:11;;;;;;;1.63;0.70;;;20.30;99.90;;;;;;5026518;28;20724;-86
2022/05/26 12:05:37;;;;;;;0.70;0.70;;;20.50;99.90;;;;;;5042390;28;20193;-85
2022/05/26 12:08:20;;;;;;;4.47;0.93;;;19.80;99.90;;;;;;5027434;28;20728;-84
2022/05/26 12:10:59;;;;;;;1.40;0.90;;;19.50;99.90;;;;;;5023310;28;20680;-87
2022/05/26 12:13:25;;;;;;;4.13;1.57;;;19.50;99.90;;;;;;5023561;28;20325;-85
2022/05/26 12:16:09;;;;;;;1.70;0.93;;;19.60;99.90;;;;;;5025680;28;20349;-86
2022/05/26 12:18:56;;;;;;;1.80;1.20;;;19.40;99.90;;;;;;5026533;28;20218;-88
2022/05/26 12:21:28;;;;;;;7.83;1.37;;;19.00;99.90;;;;;;5026980;28;20219;-89
2022/05/26 12:23:55;;;;;;;1.20;1.10;;;19.20;99.90;;;;;;5042224;28;20265;-88
2022/05/26 12:26:45;;;;;;;1.17;0.80;;;19.20;99.90;;;;;;5026619;28;20191;-88
2022/05/26 12:29:48;;;;;;;3.30;0.70;;;19.10;99.90;;;;;;5027007;28;20237;-85
2022/05/26 12:32:23;;;;;;;0.87;0.80;;;19.80;99.90;;;;;;5042712;28;20222;-86
2022/05/26 12:35:23;;;;;;;1.53;0.80;;;19.70;99.90;;;;;;5026670;28;20275;-88
2022/05/26 12:37:54;;;;;;;0.83;0.83;;;19.60;99.90;;;;;;5026812;28;20219;-88
2022/05/26 12:40:42;;;;;;;3.47;1.20;;;19.60;99.90;;;;;;5042294;28;20306;-88
2022/05/26 12:43:29;;;;;;;5.43;1.53;;;19.90;99.90;;;;;;5030470;28;20417;-88
2022/05/26 12:46:10;;;;;;;2.53;1.40;;;19.40;99.90;;;;;;5054467;28;20233;-92
2022/05/26 12:49:11;;;;;;;4.73;1.00;;;19.10;99.90;;;;;;5027024;28;20234;-89
2022/05/26 12:51:39;;;;;;;1.53;0.90;;;18.40;99.90;;;;;;5025143;28;20253;-88
2022/05/26 12:54:13;;;;;;;0.90;0.90;;;18.20;99.90;;;;;;5027035;28;20218;-87
2022/05/26 12:56:59;;;;;;;1.63;0.90;;;18.00;99.90;;;;;;5025005;28;21197;-86
2022/05/26 12:59:29;;;;;;;2.97;0.80;;;17.80;99.90;;;;;;5026690;28;20337;-85
2022/05/26 13:01:55;;;;;;;2.50;0.80;;;17.70;99.90;;;;;;5027262;28;20179;-88
2022/05/26 13:04:32;;;;;;;0.97;0.83;;;17.80;99.90;;;;;;5024457;28;20666;-86
2022/05/26 13:07:07;;;;;;;3.73;1.00;;;17.90;99.90;;;;;;5025230;28;20633;-84
2022/05/26 13:09:44;;;;;;;2.20;0.77;;;18.30;99.90;;;;;;5026370;28;20230;-89
2022/05/26 13:12:17;;;;;;;1.87;1.23;;;18.30;99.90;;;;;;5024564;28;20214;-88
2022/05/26 13:14:52;;;;;;;7.73;1.80;;;18.40;99.90;;;;;;5025422;28;20308;-85
2022/05/26 13:17:24;;;;;;;5.10;1.00;;;18.50;99.90;;;;;;5025084;28;20182;-85
2022/05/26 13:19:50;;;;;;;5.67;1.97;;;18.40;99.90;;;;;;5025129;28;20222;-88
2022/05/26 13:22:17;;;;;;;3.20;1.20;;;18.60;99.90;;;;;;5025588;28;20421;-88
2022/05/26 13:25:02;;;;;;;1.00;1.00;;;18.90;99.90;;;;;;5024615;28;20237;-86
2022/05/26 13:27:46;;;;;;;4.73;1.43;;;18.90;99.90;;;;;;5024395;28;20245;-88
2022/05/26 13:33:11;;;;;;;4.37;2.30;;;18.80;99.90;;;;;;5025710;28;20230;-87
2022/05/26 13:35:42;;;;;;;1.43;1.03;;;19.20;99.90;;;;;;5041588;28;20186;-85
2022/05/26 13:38:28;;;;;;;3.33;1.73;;;18.80;99.90;;;;;;5025380;28;20551;-87
2022/05/26 13:40:55;;;;;;;1.33;1.23;;;19.00;99.90;;;;;;5026040;28;20221;-87
2022/05/26 13:43:21;;;;;;;6.07;1.97;;;18.60;99.90;;;;;;5025336;28;20514;-87
2022/05/26 13:45:47;;;;;;;1.63;1.20;;;18.70;99.90;;;;;;5026126;28;20570;-87
2022/05/26 13:48:35;;;;;;;9.50;1.80;;;18.20;99.90;;;;;;5009025;28;20261;-90
2022/05/26 13:51:20;;;;;;;4.90;1.50;;;18.00;99.90;;;;;;5025854;28;20588;-86
2022/05/26 13:53:58;;;;;;;1.30;1.20;;;18.10;99.90;;;;;;5024105;28;20222;-89
2022/05/26 13:56:34;;;;;;;8.20;1.70;;;17.80;99.90;;;;;;5024558;28;20187;-87
2022/05/26 13:59:05;;;;;;;2.83;1.53;;;18.20;99.90;;;;;;5025269;28;20884;-87